sensor_id;sensor_type;location;lat;lon;timestamp;P1;durP1;ratioP1;P2;durP2;ratioP2
78672;SDS011;67988;60.086;30.354;2023-04-01T00:01:25;5.55;;;3.30;;
78672;SDS011;67988;60.086;30.354;2023-04-01T00:03:52;4.78;;;3.50;;
78672;SDS011;67988;60.086;30.354;2023-04-01T00:06:20;4.45;;;2.63;;
78672;SDS011;67988;60.086;30.354;2023-04-01T00:08:46;4.10;;;2.70;;
78672;SDS011;67988;60.086;30.354;2023-04-01T00:11:13;5.10;;;3.17;;
78672;SDS011;67988;60.086;30.354;2023-04-01T00:13:42;3.90;;;3.05;;
78672;SDS011;67988;60.086;30.354;2023-04-01T00:16:10;6.90;;;3.47;;
78672;SDS011;67988;60.086;30.354;2023-04-01T00:18:37;4.60;;;2.95;;
78672;SDS011;67988;60.086;30.354;2023-04-01T00:21:04;5.10;;;2.17;;
78672;SDS011;67988;60.086;30.354;2023-04-01T00:23:31;3.40;;;2.03;;
78672;SDS011;67988;60.086;30.354;2023-04-01T00:25:59;3.45;;;2.65;;
78672;SDS011;67988;60.086;30.354;2023-04-01T00:28:29;4.95;;;3.03;;
78672;SDS011;67988;60.086;30.354;2023-04-01T00:30:58;4.20;;;2.42;;
78672;SDS011;67988;60.086;30.354;2023-04-01T00:33:25;4.72;;;2.38;;
78672;SDS011;67988;60.086;30.354;2023-04-01T00:35:53;4.05;;;2.60;;
78672;SDS011;67988;60.086;30.354;2023-04-01T00:38:20;4.78;;;3.03;;
78672;SDS011;67988;60.086;30.354;2023-04-01T00:40:47;3.67;;;2.50;;
78672;SDS011;67988;60.086;30.354;2023-04-01T00:43:15;5.32;;;3.35;;
78672;SDS011;67988;60.086;30.354;2023-04-01T00:45:45;5.53;;;2.92;;
78672;SDS011;67988;60.086;30.354;2023-04-01T00:48:16;3.80;;;2.30;;
78672;SDS011;67988;60.086;30.354;2023-04-01T00:50:46;3.22;;;2.63;;
78672;SDS011;67988;60.086;30.354;2023-04-01T00:53:17;2.22;;;1.85;;
78672;SDS011;67988;60.086;30.354;2023-04-01T00:55:47;3.20;;;2.38;;
78672;SDS011;67988;60.086;30.354;2023-04-01T00:58:18;5.18;;;3.05;;
78672;SDS011;67988;60.086;30.354;2023-04-01T01:00:49;2.85;;;1.83;;
78672;SDS011;67988;60.086;30.354;2023-04-01T01:05:55;3.20;;;2.40;;
78672;SDS011;67988;60.086;30.354;2023-04-01T01:09:06;4.15;;;3.55;;
78672;SDS011;67988;60.086;30.354;2023-04-01T01:11:42;4.20;;;3.20;;
78672;SDS011;67988;60.086;30.354;2023-04-01T01:14:14;4.10;;;3.03;;
78672;SDS011;67988;60.086;30.354;2023-04-01T01:16:56;4.00;;;2.58;;
78672;SDS011;67988;60.086;30.354;2023-04-01T01:22:34;3.47;;;1.92;;
78672;SDS011;67988;60.086;30.354;2023-04-01T01:25:16;4.65;;;3.75;;
78672;SDS011;67988;60.086;30.354;2023-04-01T01:27:54;5.13;;;3.70;;
78672;SDS011;67988;60.086;30.354;2023-04-01T01:30:36;3.60;;;2.80;;
78672;SDS011;67988;60.086;30.354;2023-04-01T01:36:04;4.22;;;2.80;;
78672;SDS011;67988;60.086;30.354;2023-04-01T01:38:36;3.88;;;2.72;;
78672;SDS011;67988;60.086;30.354;2023-04-01T01:43:33;3.78;;;2.40;;
78672;SDS011;67988;60.086;30.354;2023-04-01T01:46:04;4.28;;;3.17;;
78672;SDS011;67988;60.086;30.354;2023-04-01T01:48:35;4.57;;;3.30;;
78672;SDS011;67988;60.086;30.354;2023-04-01T01:51:05;5.00;;;3.45;;
78672;SDS011;67988;60.086;30.354;2023-04-01T01:53:33;3.88;;;3.15;;
78672;SDS011;67988;60.086;30.354;2023-04-01T01:56:00;4.00;;;3.17;;
78672;SDS011;67988;60.086;30.354;2023-04-01T01:58:32;4.90;;;3.47;;
78672;SDS011;67988;60.086;30.354;2023-04-01T02:01:06;4.05;;;2.83;;
78672;SDS011;67988;60.086;30.354;2023-04-01T02:03:39;4.47;;;3.65;;
78672;SDS011;67988;60.086;30.354;2023-04-01T02:06:10;6.32;;;4.30;;
78672;SDS011;67988;60.086;30.354;2023-04-01T02:08:41;4.25;;;3.03;;
78672;SDS011;67988;60.086;30.354;2023-04-01T02:11:11;5.07;;;3.42;;
78672;SDS011;67988;60.086;30.354;2023-04-01T02:13:43;5.18;;;2.90;;
78672;SDS011;67988;60.086;30.354;2023-04-01T02:16:15;4.53;;;3.38;;
78672;SDS011;67988;60.086;30.354;2023-04-01T02:18:46;3.83;;;2.90;;
78672;SDS011;67988;60.086;30.354;2023-04-01T02:21:18;4.13;;;2.83;;
78672;SDS011;67988;60.086;30.354;2023-04-01T02:23:48;4.60;;;3.25;;
78672;SDS011;67988;60.086;30.354;2023-04-01T02:26:18;4.20;;;3.13;;
78672;SDS011;67988;60.086;30.354;2023-04-01T02:28:47;4.65;;;3.78;;
78672;SDS011;67988;60.086;30.354;2023-04-01T02:31:15;4.32;;;2.90;;
78672;SDS011;67988;60.086;30.354;2023-04-01T02:33:43;4.22;;;3.28;;
78672;SDS011;67988;60.086;30.354;2023-04-01T02:36:12;3.75;;;2.72;;
78672;SDS011;67988;60.086;30.354;2023-04-01T02:38:42;4.57;;;2.58;;
78672;SDS011;67988;60.086;30.354;2023-04-01T02:41:11;3.83;;;2.60;;
78672;SDS011;67988;60.086;30.354;2023-04-01T02:43:38;4.78;;;2.78;;
78672;SDS011;67988;60.086;30.354;2023-04-01T02:46:06;3.33;;;2.67;;
78672;SDS011;67988;60.086;30.354;2023-04-01T02:48:33;3.72;;;2.22;;
78672;SDS011;67988;60.086;30.354;2023-04-01T02:51:00;4.07;;;2.85;;
78672;SDS011;67988;60.086;30.354;2023-04-01T02:53:27;4.40;;;3.53;;
78672;SDS011;67988;60.086;30.354;2023-04-01T02:55:55;4.10;;;2.70;;
78672;SDS011;67988;60.086;30.354;2023-04-01T02:58:22;3.72;;;2.35;;
78672;SDS011;67988;60.086;30.354;2023-04-01T03:00:49;4.05;;;2.75;;
78672;SDS011;67988;60.086;30.354;2023-04-01T03:03:16;3.40;;;2.42;;
78672;SDS011;67988;60.086;30.354;2023-04-01T03:05:43;3.05;;;2.35;;
78672;SDS011;67988;60.086;30.354;2023-04-01T03:08:10;4.72;;;2.92;;
78672;SDS011;67988;60.086;30.354;2023-04-01T03:10:37;3.97;;;2.60;;
78672;SDS011;67988;60.086;30.354;2023-04-01T03:13:06;4.07;;;3.33;;
78672;SDS011;67988;60.086;30.354;2023-04-01T03:15:33;3.88;;;3.00;;
78672;SDS011;67988;60.086;30.354;2023-04-01T03:18:00;4.07;;;3.15;;
78672;SDS011;67988;60.086;30.354;2023-04-01T03:20:28;4.40;;;2.97;;
78672;SDS011;67988;60.086;30.354;2023-04-01T03:22:55;4.32;;;2.72;;
78672;SDS011;67988;60.086;30.354;2023-04-01T03:25:22;4.93;;;3.17;;
78672;SDS011;67988;60.086;30.354;2023-04-01T03:27:49;3.90;;;2.20;;
78672;SDS011;67988;60.086;30.354;2023-04-01T03:30:18;4.70;;;3.15;;
78672;SDS011;67988;60.086;30.354;2023-04-01T03:32:49;4.60;;;2.25;;
78672;SDS011;67988;60.086;30.354;2023-04-01T03:35:16;3.88;;;3.25;;
78672;SDS011;67988;60.086;30.354;2023-04-01T03:37:44;4.32;;;3.10;;
78672;SDS011;67988;60.086;30.354;2023-04-01T03:40:11;4.80;;;3.95;;
78672;SDS011;67988;60.086;30.354;2023-04-01T03:42:38;4.50;;;3.65;;
78672;SDS011;67988;60.086;30.354;2023-04-01T03:45:06;3.78;;;2.72;;
78672;SDS011;67988;60.086;30.354;2023-04-01T03:47:34;3.95;;;2.90;;
78672;SDS011;67988;60.086;30.354;2023-04-01T03:50:01;6.10;;;3.00;;
78672;SDS011;67988;60.086;30.354;2023-04-01T03:52:28;4.97;;;4.10;;
78672;SDS011;67988;60.086;30.354;2023-04-01T03:54:55;3.90;;;3.13;;
78672;SDS011;67988;60.086;30.354;2023-04-01T03:57:22;2.95;;;2.10;;
78672;SDS011;67988;60.086;30.354;2023-04-01T03:59:50;3.30;;;2.97;;
78672;SDS011;67988;60.086;30.354;2023-04-01T04:02:17;4.32;;;3.28;;
78672;SDS011;67988;60.086;30.354;2023-04-01T04:04:46;3.33;;;2.25;;
78672;SDS011;67988;60.086;30.354;2023-04-01T04:07:13;4.20;;;3.45;;
78672;SDS011;67988;60.086;30.354;2023-04-01T04:09:58;2.75;;;2.22;;
78672;SDS011;67988;60.086;30.354;2023-04-01T04:12:25;3.95;;;2.83;;
78672;SDS011;67988;60.086;30.354;2023-04-01T04:14:52;3.42;;;2.40;;
78672;SDS011;67988;60.086;30.354;2023-04-01T04:17:20;2.95;;;2.40;;
78672;SDS011;67988;60.086;30.354;2023-04-01T04:19:48;3.72;;;2.90;;
78672;SDS011;67988;60.086;30.354;2023-04-01T04:22:15;4.57;;;2.70;;
78672;SDS011;67988;60.086;30.354;2023-04-01T04:24:42;3.42;;;2.72;;
78672;SDS011;67988;60.086;30.354;2023-04-01T04:27:11;3.00;;;2.28;;
78672;SDS011;67988;60.086;30.354;2023-04-01T04:30:05;3.47;;;1.98;;
78672;SDS011;67988;60.086;30.354;2023-04-01T04:32:35;3.30;;;2.58;;
78672;SDS011;67988;60.086;30.354;2023-04-01T04:35:04;3.83;;;2.65;;
78672;SDS011;67988;60.086;30.354;2023-04-01T04:37:33;3.55;;;2.55;;
78672;SDS011;67988;60.086;30.354;2023-04-01T04:40:00;4.05;;;1.92;;
78672;SDS011;67988;60.086;30.354;2023-04-01T04:42:28;3.60;;;2.53;;
78672;SDS011;67988;60.086;30.354;2023-04-01T04:45:01;3.13;;;2.63;;
78672;SDS011;67988;60.086;30.354;2023-04-01T04:47:29;2.88;;;2.00;;
78672;SDS011;67988;60.086;30.354;2023-04-01T04:49:56;3.25;;;2.30;;
78672;SDS011;67988;60.086;30.354;2023-04-01T04:52:24;3.97;;;2.28;;
78672;SDS011;67988;60.086;30.354;2023-04-01T04:54:51;2.58;;;2.33;;
78672;SDS011;67988;60.086;30.354;2023-04-01T04:57:18;3.75;;;3.15;;
78672;SDS011;67988;60.086;30.354;2023-04-01T04:59:52;2.85;;;2.47;;
78672;SDS011;67988;60.086;30.354;2023-04-01T05:02:42;4.55;;;3.08;;
78672;SDS011;67988;60.086;30.354;2023-04-01T05:05:09;3.97;;;2.17;;
78672;SDS011;67988;60.086;30.354;2023-04-01T05:07:37;2.53;;;2.15;;
78672;SDS011;67988;60.086;30.354;2023-04-01T05:10:04;2.75;;;2.53;;
78672;SDS011;67988;60.086;30.354;2023-04-01T05:15:03;3.78;;;2.55;;
78672;SDS011;67988;60.086;30.354;2023-04-01T05:17:30;3.58;;;2.90;;
78672;SDS011;67988;60.086;30.354;2023-04-01T05:19:57;4.15;;;2.78;;
78672;SDS011;67988;60.086;30.354;2023-04-01T05:22:25;6.30;;;3.72;;
78672;SDS011;67988;60.086;30.354;2023-04-01T05:24:53;3.28;;;2.97;;
78672;SDS011;67988;60.086;30.354;2023-04-01T05:27:21;3.65;;;2.60;;
78672;SDS011;67988;60.086;30.354;2023-04-01T05:29:48;3.33;;;2.67;;
78672;SDS011;67988;60.086;30.354;2023-04-01T05:32:35;4.65;;;3.15;;
78672;SDS011;67988;60.086;30.354;2023-04-01T05:35:02;4.45;;;3.13;;
78672;SDS011;67988;60.086;30.354;2023-04-01T05:37:29;3.60;;;2.42;;
78672;SDS011;67988;60.086;30.354;2023-04-01T05:39:57;5.07;;;2.42;;
78672;SDS011;67988;60.086;30.354;2023-04-01T05:42:25;3.90;;;2.72;;
78672;SDS011;67988;60.086;30.354;2023-04-01T05:44:52;3.35;;;2.30;;
78672;SDS011;67988;60.086;30.354;2023-04-01T05:47:48;3.92;;;2.72;;
78672;SDS011;67988;60.086;30.354;2023-04-01T05:50:17;3.85;;;2.53;;
78672;SDS011;67988;60.086;30.354;2023-04-01T05:52:44;4.10;;;3.03;;
78672;SDS011;67988;60.086;30.354;2023-04-01T05:55:13;4.00;;;3.35;;
78672;SDS011;67988;60.086;30.354;2023-04-01T05:57:40;3.92;;;3.42;;
78672;SDS011;67988;60.086;30.354;2023-04-01T06:00:07;4.55;;;2.70;;
78672;SDS011;67988;60.086;30.354;2023-04-01T06:02:37;4.03;;;2.65;;
78672;SDS011;67988;60.086;30.354;2023-04-01T06:07:38;3.78;;;2.65;;
78672;SDS011;67988;60.086;30.354;2023-04-01T06:10:09;8.10;;;2.95;;
78672;SDS011;67988;60.086;30.354;2023-04-01T06:15:33;3.33;;;2.20;;
78672;SDS011;67988;60.086;30.354;2023-04-01T06:18:19;2.65;;;2.10;;
78672;SDS011;67988;60.086;30.354;2023-04-01T06:21:22;4.40;;;2.95;;
78672;SDS011;67988;60.086;30.354;2023-04-01T06:24:07;7.13;;;2.08;;
78672;SDS011;67988;60.086;30.354;2023-04-01T06:26:48;3.75;;;2.22;;
78672;SDS011;67988;60.086;30.354;2023-04-01T06:29:26;4.75;;;2.47;;
78672;SDS011;67988;60.086;30.354;2023-04-01T06:32:20;4.50;;;3.00;;
78672;SDS011;67988;60.086;30.354;2023-04-01T06:35:01;4.13;;;2.22;;
78672;SDS011;67988;60.086;30.354;2023-04-01T06:38:00;7.50;;;3.25;;
78672;SDS011;67988;60.086;30.354;2023-04-01T06:43:51;4.15;;;3.20;;
78672;SDS011;67988;60.086;30.354;2023-04-01T06:46:44;4.30;;;3.03;;
78672;SDS011;67988;60.086;30.354;2023-04-01T06:49:41;4.97;;;2.65;;
78672;SDS011;67988;60.086;30.354;2023-04-01T06:52:36;10.20;;;2.72;;
78672;SDS011;67988;60.086;30.354;2023-04-01T06:55:50;4.65;;;2.80;;
78672;SDS011;67988;60.086;30.354;2023-04-01T06:58:34;5.65;;;4.00;;
78672;SDS011;67988;60.086;30.354;2023-04-01T07:01:06;7.60;;;3.42;;
78672;SDS011;67988;60.086;30.354;2023-04-01T07:03:38;3.90;;;2.75;;
78672;SDS011;67988;60.086;30.354;2023-04-01T07:06:09;5.32;;;2.72;;
78672;SDS011;67988;60.086;30.354;2023-04-01T07:08:49;5.43;;;2.17;;
78672;SDS011;67988;60.086;30.354;2023-04-01T07:11:21;6.88;;;2.33;;
78672;SDS011;67988;60.086;30.354;2023-04-01T07:14:13;3.80;;;2.13;;
78672;SDS011;67988;60.086;30.354;2023-04-01T07:16:47;4.95;;;2.65;;
78672;SDS011;67988;60.086;30.354;2023-04-01T07:19:18;3.63;;;2.55;;
78672;SDS011;67988;60.086;30.354;2023-04-01T07:22:00;3.08;;;2.75;;
78672;SDS011;67988;60.086;30.354;2023-04-01T07:24:52;6.38;;;2.72;;
78672;SDS011;67988;60.086;30.354;2023-04-01T07:27:23;6.55;;;2.72;;
78672;SDS011;67988;60.086;30.354;2023-04-01T07:29:50;14.10;;;3.75;;
78672;SDS011;67988;60.086;30.354;2023-04-01T07:32:21;5.45;;;2.88;;
78672;SDS011;67988;60.086;30.354;2023-04-01T07:35:00;4.63;;;2.90;;
78672;SDS011;67988;60.086;30.354;2023-04-01T07:37:38;9.25;;;4.60;;
78672;SDS011;67988;60.086;30.354;2023-04-01T07:40:15;4.25;;;3.50;;
78672;SDS011;67988;60.086;30.354;2023-04-01T07:42:55;9.57;;;3.00;;
78672;SDS011;67988;60.086;30.354;2023-04-01T07:45:34;4.60;;;2.78;;
78672;SDS011;67988;60.086;30.354;2023-04-01T07:48:15;4.30;;;2.40;;
78672;SDS011;67988;60.086;30.354;2023-04-01T07:50:50;4.60;;;3.33;;
78672;SDS011;67988;60.086;30.354;2023-04-01T07:53:26;12.63;;;3.70;;
78672;SDS011;67988;60.086;30.354;2023-04-01T07:56:00;8.13;;;3.10;;
78672;SDS011;67988;60.086;30.354;2023-04-01T07:58:38;4.40;;;2.83;;
78672;SDS011;67988;60.086;30.354;2023-04-01T08:01:39;5.00;;;3.75;;
78672;SDS011;67988;60.086;30.354;2023-04-01T08:04:23;4.07;;;2.40;;
78672;SDS011;67988;60.086;30.354;2023-04-01T08:07:02;5.53;;;2.65;;
78672;SDS011;67988;60.086;30.354;2023-04-01T08:09:40;4.15;;;2.00;;
78672;SDS011;67988;60.086;30.354;2023-04-01T08:12:35;4.43;;;2.40;;
78672;SDS011;67988;60.086;30.354;2023-04-01T08:15:45;5.68;;;3.95;;
78672;SDS011;67988;60.086;30.354;2023-04-01T08:18:47;3.22;;;2.10;;
78672;SDS011;67988;60.086;30.354;2023-04-01T08:21:27;5.82;;;2.15;;
78672;SDS011;67988;60.086;30.354;2023-04-01T08:24:00;3.92;;;2.33;;
78672;SDS011;67988;60.086;30.354;2023-04-01T08:26:37;3.17;;;1.90;;
78672;SDS011;67988;60.086;30.354;2023-04-01T08:29:11;4.85;;;3.47;;
78672;SDS011;67988;60.086;30.354;2023-04-01T08:31:43;3.90;;;2.25;;
78672;SDS011;67988;60.086;30.354;2023-04-01T08:34:15;4.68;;;1.75;;
78672;SDS011;67988;60.086;30.354;2023-04-01T08:36:48;8.43;;;3.25;;
78672;SDS011;67988;60.086;30.354;2023-04-01T08:39:22;5.10;;;1.85;;
78672;SDS011;67988;60.086;30.354;2023-04-01T08:42:03;2.55;;;1.65;;
78672;SDS011;67988;60.086;30.354;2023-04-01T08:48:19;2.80;;;1.83;;
78672;SDS011;67988;60.086;30.354;2023-04-01T08:54:06;7.25;;;2.00;;
78672;SDS011;67988;60.086;30.354;2023-04-01T08:56:53;6.43;;;2.22;;
78672;SDS011;67988;60.086;30.354;2023-04-01T08:59:41;8.75;;;2.20;;
78672;SDS011;67988;60.086;30.354;2023-04-01T09:03:14;4.45;;;2.72;;
78672;SDS011;67988;60.086;30.354;2023-04-01T09:06:05;6.22;;;2.47;;
78672;SDS011;67988;60.086;30.354;2023-04-01T09:08:51;4.75;;;2.13;;
78672;SDS011;67988;60.086;30.354;2023-04-01T09:11:32;5.05;;;1.83;;
78672;SDS011;67988;60.086;30.354;2023-04-01T09:14:28;3.95;;;1.95;;
78672;SDS011;67988;60.086;30.354;2023-04-01T09:20:30;3.53;;;3.20;;
78672;SDS011;67988;60.086;30.354;2023-04-01T09:23:17;3.72;;;2.72;;
78672;SDS011;67988;60.086;30.354;2023-04-01T09:25:58;3.58;;;1.65;;
78672;SDS011;67988;60.086;30.354;2023-04-01T09:28:42;3.05;;;2.03;;
78672;SDS011;67988;60.086;30.354;2023-04-01T09:31:25;3.33;;;1.50;;
78672;SDS011;67988;60.086;30.354;2023-04-01T09:34:26;3.00;;;2.35;;
78672;SDS011;67988;60.086;30.354;2023-04-01T09:37:19;7.63;;;3.05;;
78672;SDS011;67988;60.086;30.354;2023-04-01T09:39:55;4.82;;;2.30;;
78672;SDS011;67988;60.086;30.354;2023-04-01T09:45:40;4.82;;;2.42;;
78672;SDS011;67988;60.086;30.354;2023-04-01T09:51:23;10.52;;;5.47;;
78672;SDS011;67988;60.086;30.354;2023-04-01T09:54:05;7.15;;;4.65;;
78672;SDS011;67988;60.086;30.354;2023-04-01T09:56:52;6.28;;;3.55;;
78672;SDS011;67988;60.086;30.354;2023-04-01T10:02:57;5.03;;;3.35;;
78672;SDS011;67988;60.086;30.354;2023-04-01T10:18:25;4.05;;;2.17;;
78672;SDS011;67988;60.086;30.354;2023-04-01T10:24:27;3.42;;;2.28;;
78672;SDS011;67988;60.086;30.354;2023-04-01T10:27:15;4.35;;;1.70;;
78672;SDS011;67988;60.086;30.354;2023-04-01T10:49:37;4.43;;;2.10;;
78672;SDS011;67988;60.086;30.354;2023-04-01T10:52:19;3.50;;;2.35;;
78672;SDS011;67988;60.086;30.354;2023-04-01T11:12:06;18.05;;;2.53;;
78672;SDS011;67988;60.086;30.354;2023-04-01T11:15:09;5.07;;;2.05;;
78672;SDS011;67988;60.086;30.354;2023-04-01T11:24:31;4.75;;;2.28;;
78672;SDS011;67988;60.086;30.354;2023-04-01T11:27:30;2.80;;;2.38;;
78672;SDS011;67988;60.086;30.354;2023-04-01T11:30:21;3.85;;;2.05;;
78672;SDS011;67988;60.086;30.354;2023-04-01T11:32:57;2.55;;;1.30;;
78672;SDS011;67988;60.086;30.354;2023-04-01T11:35:38;1.55;;;0.70;;
78672;SDS011;67988;60.086;30.354;2023-04-01T11:38:22;3.88;;;1.83;;
78672;SDS011;67988;60.086;30.354;2023-04-01T11:41:22;3.30;;;1.60;;
78672;SDS011;67988;60.086;30.354;2023-04-01T11:44:20;2.17;;;1.55;;
78672;SDS011;67988;60.086;30.354;2023-04-01T11:47:19;3.63;;;1.42;;
78672;SDS011;67988;60.086;30.354;2023-04-01T11:50:03;2.13;;;1.85;;
78672;SDS011;67988;60.086;30.354;2023-04-01T11:55:37;4.10;;;1.90;;
78672;SDS011;67988;60.086;30.354;2023-04-01T12:01:13;8.50;;;2.35;;
78672;SDS011;67988;60.086;30.354;2023-04-01T12:03:59;2.58;;;1.73;;
78672;SDS011;67988;60.086;30.354;2023-04-01T12:06:40;2.20;;;1.50;;
78672;SDS011;67988;60.086;30.354;2023-04-01T12:09:16;1.98;;;0.90;;
78672;SDS011;67988;60.086;30.354;2023-04-01T12:11:52;2.60;;;1.40;;
78672;SDS011;67988;60.086;30.354;2023-04-01T12:14:33;1.40;;;0.80;;
78672;SDS011;67988;60.086;30.354;2023-04-01T12:17:09;2.08;;;1.00;;
78672;SDS011;67988;60.086;30.354;2023-04-01T12:19:51;2.75;;;1.90;;
78672;SDS011;67988;60.086;30.354;2023-04-01T12:22:26;2.88;;;0.80;;
78672;SDS011;67988;60.086;30.354;2023-04-01T12:25:07;2.00;;;1.23;;
78672;SDS011;67988;60.086;30.354;2023-04-01T12:27:52;1.98;;;0.85;;
78672;SDS011;67988;60.086;30.354;2023-04-01T12:30:38;1.67;;;0.98;;
78672;SDS011;67988;60.086;30.354;2023-04-01T12:33:20;2.38;;;1.10;;
78672;SDS011;67988;60.086;30.354;2023-04-01T12:36:06;1.60;;;1.30;;
78672;SDS011;67988;60.086;30.354;2023-04-01T12:38:44;1.77;;;1.33;;
78672;SDS011;67988;60.086;30.354;2023-04-01T12:41:26;1.67;;;1.10;;
78672;SDS011;67988;60.086;30.354;2023-04-01T12:44:11;2.25;;;1.42;;
78672;SDS011;67988;60.086;30.354;2023-04-01T12:46:59;2.67;;;1.27;;
78672;SDS011;67988;60.086;30.354;2023-04-01T12:49:48;2.90;;;1.73;;
78672;SDS011;67988;60.086;30.354;2023-04-01T12:52:25;1.52;;;1.38;;
78672;SDS011;67988;60.086;30.354;2023-04-01T12:58:13;3.08;;;2.10;;
78672;SDS011;67988;60.086;30.354;2023-04-01T13:01:08;4.00;;;2.35;;
78672;SDS011;67988;60.086;30.354;2023-04-01T13:06:52;2.13;;;1.65;;
78672;SDS011;67988;60.086;30.354;2023-04-01T13:09:36;1.60;;;0.98;;
78672;SDS011;67988;60.086;30.354;2023-04-01T13:15:17;2.47;;;1.00;;
78672;SDS011;67988;60.086;30.354;2023-04-01T13:17:51;3.00;;;1.42;;
78672;SDS011;67988;60.086;30.354;2023-04-01T13:20:26;2.83;;;1.25;;
78672;SDS011;67988;60.086;30.354;2023-04-01T13:23:09;1.73;;;0.63;;
78672;SDS011;67988;60.086;30.354;2023-04-01T13:25:45;4.65;;;1.00;;
78672;SDS011;67988;60.086;30.354;2023-04-01T13:28:18;0.77;;;0.50;;
78672;SDS011;67988;60.086;30.354;2023-04-01T13:30:53;2.20;;;0.77;;
78672;SDS011;67988;60.086;30.354;2023-04-01T13:33:30;4.05;;;1.38;;
78672;SDS011;67988;60.086;30.354;2023-04-01T13:36:17;6.65;;;2.50;;
78672;SDS011;67988;60.086;30.354;2023-04-01T13:38:57;2.08;;;1.33;;
78672;SDS011;67988;60.086;30.354;2023-04-01T13:41:41;2.08;;;1.35;;
78672;SDS011;67988;60.086;30.354;2023-04-01T13:44:20;2.15;;;1.17;;
78672;SDS011;67988;60.086;30.354;2023-04-01T13:47:11;1.70;;;0.63;;
78672;SDS011;67988;60.086;30.354;2023-04-01T13:49:57;3.33;;;1.23;;
78672;SDS011;67988;60.086;30.354;2023-04-01T13:55:51;2.03;;;1.23;;
78672;SDS011;67988;60.086;30.354;2023-04-01T13:58:38;2.25;;;1.27;;
78672;SDS011;67988;60.086;30.354;2023-04-01T14:01:21;2.17;;;0.88;;
78672;SDS011;67988;60.086;30.354;2023-04-01T14:04:11;3.85;;;1.10;;
78672;SDS011;67988;60.086;30.354;2023-04-01T14:06:57;2.72;;;1.00;;
78672;SDS011;67988;60.086;30.354;2023-04-01T14:12:29;2.05;;;0.95;;
78672;SDS011;67988;60.086;30.354;2023-04-01T14:15:07;1.73;;;0.50;;
78672;SDS011;67988;60.086;30.354;2023-04-01T14:17:50;2.13;;;0.98;;
78672;SDS011;67988;60.086;30.354;2023-04-01T14:20:33;1.58;;;0.57;;
78672;SDS011;67988;60.086;30.354;2023-04-01T14:23:21;1.60;;;0.47;;
78672;SDS011;67988;60.086;30.354;2023-04-01T14:28:42;2.97;;;0.70;;
78672;SDS011;67988;60.086;30.354;2023-04-01T14:34:16;1.48;;;0.77;;
78672;SDS011;67988;60.086;30.354;2023-04-01T14:36:53;2.40;;;1.20;;
78672;SDS011;67988;60.086;30.354;2023-04-01T14:39:48;2.53;;;1.60;;
78672;SDS011;67988;60.086;30.354;2023-04-01T14:42:46;2.17;;;0.70;;
78672;SDS011;67988;60.086;30.354;2023-04-01T14:45:42;5.65;;;1.23;;
78672;SDS011;67988;60.086;30.354;2023-04-01T14:48:22;3.78;;;1.25;;
78672;SDS011;67988;60.086;30.354;2023-04-01T14:50:54;2.72;;;0.85;;
78672;SDS011;67988;60.086;30.354;2023-04-01T14:53:29;2.42;;;1.58;;
78672;SDS011;67988;60.086;30.354;2023-04-01T14:56:04;2.65;;;1.17;;
78672;SDS011;67988;60.086;30.354;2023-04-01T14:58:40;4.32;;;1.25;;
78672;SDS011;67988;60.086;30.354;2023-04-01T15:04:13;2.75;;;0.88;;
78672;SDS011;67988;60.086;30.354;2023-04-01T15:07:01;1.20;;;0.45;;
78672;SDS011;67988;60.086;30.354;2023-04-01T15:09:44;2.35;;;0.95;;
78672;SDS011;67988;60.086;30.354;2023-04-01T15:12:22;3.42;;;0.77;;
78672;SDS011;67988;60.086;30.354;2023-04-01T15:14:59;4.47;;;0.90;;
78672;SDS011;67988;60.086;30.354;2023-04-01T15:17:44;6.20;;;2.83;;
78672;SDS011;67988;60.086;30.354;2023-04-01T15:23:24;3.63;;;1.33;;
78672;SDS011;67988;60.086;30.354;2023-04-01T15:26:06;6.13;;;3.65;;
78672;SDS011;67988;60.086;30.354;2023-04-01T15:28:40;2.67;;;1.65;;
78672;SDS011;67988;60.086;30.354;2023-04-01T15:31:16;2.80;;;1.05;;
78672;SDS011;67988;60.086;30.354;2023-04-01T15:33:59;4.15;;;1.08;;
78672;SDS011;67988;60.086;30.354;2023-04-01T15:36:43;2.55;;;1.15;;
78672;SDS011;67988;60.086;30.354;2023-04-01T15:39:18;1.48;;;1.05;;
78672;SDS011;67988;60.086;30.354;2023-04-01T15:41:54;1.92;;;0.73;;
78672;SDS011;67988;60.086;30.354;2023-04-01T15:44:37;3.42;;;1.27;;
78672;SDS011;67988;60.086;30.354;2023-04-01T15:50:05;2.38;;;1.00;;
78672;SDS011;67988;60.086;30.354;2023-04-01T15:53:00;3.67;;;2.58;;
78672;SDS011;67988;60.086;30.354;2023-04-01T15:55:37;2.35;;;1.05;;
78672;SDS011;67988;60.086;30.354;2023-04-01T15:58:22;2.85;;;1.27;;
78672;SDS011;67988;60.086;30.354;2023-04-01T16:01:07;2.13;;;1.00;;
78672;SDS011;67988;60.086;30.354;2023-04-01T16:09:28;2.95;;;1.33;;
78672;SDS011;67988;60.086;30.354;2023-04-01T16:12:15;2.40;;;1.20;;
78672;SDS011;67988;60.086;30.354;2023-04-01T16:14:54;2.92;;;1.00;;
78672;SDS011;67988;60.086;30.354;2023-04-01T16:17:33;1.67;;;0.70;;
78672;SDS011;67988;60.086;30.354;2023-04-01T16:20:17;2.13;;;1.63;;
78672;SDS011;67988;60.086;30.354;2023-04-01T16:22:52;1.25;;;0.55;;
78672;SDS011;67988;60.086;30.354;2023-04-01T16:25:26;1.38;;;0.63;;
78672;SDS011;67988;60.086;30.354;2023-04-01T16:28:04;2.65;;;1.50;;
78672;SDS011;67988;60.086;30.354;2023-04-01T16:30:43;1.70;;;0.88;;
78672;SDS011;67988;60.086;30.354;2023-04-01T16:33:15;2.60;;;2.40;;
78672;SDS011;67988;60.086;30.354;2023-04-01T16:35:52;1.73;;;0.90;;
78672;SDS011;67988;60.086;30.354;2023-04-01T16:38:27;4.10;;;1.30;;
78672;SDS011;67988;60.086;30.354;2023-04-01T16:41:10;4.82;;;1.48;;
78672;SDS011;67988;60.086;30.354;2023-04-01T16:43:41;2.50;;;0.85;;
78672;SDS011;67988;60.086;30.354;2023-04-01T16:46:14;1.73;;;0.82;;
78672;SDS011;67988;60.086;30.354;2023-04-01T16:48:57;2.05;;;0.82;;
78672;SDS011;67988;60.086;30.354;2023-04-01T16:51:32;2.10;;;0.65;;
78672;SDS011;67988;60.086;30.354;2023-04-01T16:54:06;5.35;;;0.82;;
78672;SDS011;67988;60.086;30.354;2023-04-01T16:56:42;2.83;;;1.45;;
78672;SDS011;67988;60.086;30.354;2023-04-01T16:59:16;2.45;;;0.90;;
78672;SDS011;67988;60.086;30.354;2023-04-01T17:01:49;1.30;;;1.02;;
78672;SDS011;67988;60.086;30.354;2023-04-01T17:04:23;1.17;;;0.52;;
78672;SDS011;67988;60.086;30.354;2023-04-01T17:06:59;2.00;;;1.75;;
78672;SDS011;67988;60.086;30.354;2023-04-01T17:09:43;1.42;;;0.60;;
78672;SDS011;67988;60.086;30.354;2023-04-01T17:12:31;1.45;;;0.98;;
78672;SDS011;67988;60.086;30.354;2023-04-01T17:15:05;1.70;;;1.50;;
78672;SDS011;67988;60.086;30.354;2023-04-01T17:17:48;1.98;;;1.05;;
78672;SDS011;67988;60.086;30.354;2023-04-01T17:20:40;1.67;;;1.10;;
78672;SDS011;67988;60.086;30.354;2023-04-01T17:23:13;1.73;;;0.88;;
78672;SDS011;67988;60.086;30.354;2023-04-01T17:25:53;2.40;;;1.58;;
78672;SDS011;67988;60.086;30.354;2023-04-01T17:28:43;3.65;;;2.60;;
78672;SDS011;67988;60.086;30.354;2023-04-01T17:31:18;4.82;;;2.25;;
78672;SDS011;67988;60.086;30.354;2023-04-01T17:33:56;5.38;;;2.90;;
78672;SDS011;67988;60.086;30.354;2023-04-01T17:36:33;9.85;;;4.45;;
78672;SDS011;67988;60.086;30.354;2023-04-01T17:39:16;16.92;;;7.05;;
78672;SDS011;67988;60.086;30.354;2023-04-01T17:41:53;23.58;;;11.73;;
78672;SDS011;67988;60.086;30.354;2023-04-01T17:44:32;26.15;;;12.88;;
78672;SDS011;67988;60.086;30.354;2023-04-01T17:47:12;19.83;;;10.57;;
78672;SDS011;67988;60.086;30.354;2023-04-01T17:49:51;18.73;;;9.23;;
78672;SDS011;67988;60.086;30.354;2023-04-01T17:52:29;14.70;;;7.07;;
78672;SDS011;67988;60.086;30.354;2023-04-01T17:55:07;9.00;;;4.88;;